Belcoville, New Jersey
Current Conditions -  °F | °C
As of 8:54 PM on Saturday 25 Oct 2014 (Local Time) from KACY Reporting Station
Clear Clear  
Wind Chill: 58°   Ceiling: Unl
Heat Index: 58°   Visibility: 10mi
Dew Point: 47°   Wind: 8mph
Humidity: 67%   Direction: 220°SW
Pressure: 29.7"   Gusts: NA
Location:  39.4502°N, 74.7366°W
Report Text: KACY 260054Z 22007KT 10SM CLR 14/08 A2970 RMK AO2 SLP057 T01440083
Loading
Personal Weather Stations






























Interactive Weather Map
Tropical Storm Tracking
New forecast layout! Learn more

10-Day Weather Forecast

Advertisements
Track Severe Weather on mobile